createdAt,value
2022-11-02T00:02:11.275Z,101085.88
2022-11-02T00:04:41.093Z,101077.44
2022-11-02T00:07:13.451Z,101075.63
2022-11-02T00:09:43.210Z,101059.25
2022-11-02T00:12:12.980Z,101059.13
2022-11-02T00:14:42.733Z,101043.00
2022-11-02T00:17:12.472Z,101065.41
2022-11-02T00:19:42.335Z,101033.38
2022-11-02T00:22:14.721Z,101036.88
2022-11-02T00:24:44.964Z,101046.59
2022-11-02T00:27:14.766Z,101060.50
2022-11-02T00:29:44.549Z,101059.00
2022-11-02T00:32:14.290Z,101051.19
2022-11-02T00:34:44.037Z,101055.47
2022-11-02T00:37:16.377Z,101031.38
2022-11-02T00:39:46.187Z,101044.28
2022-11-02T00:42:16.178Z,101042.84
2022-11-02T00:44:46.071Z,101037.75
2022-11-02T00:47:15.804Z,101045.41
2022-11-02T00:49:45.547Z,101043.50
2022-11-02T00:52:17.994Z,101018.72
2022-11-02T00:54:52.131Z,101005.03
2022-11-02T00:57:22.129Z,100973.22
2022-11-02T00:59:52.036Z,101047.22
2022-11-02T01:02:22.008Z,101036.72
2022-11-02T01:04:51.882Z,101040.56
2022-11-02T01:07:24.776Z,101033.91
2022-11-02T01:09:54.566Z,101028.44
2022-11-02T01:12:24.734Z,101037.91
2022-11-02T01:14:54.487Z,101013.28
2022-11-02T01:17:24.277Z,101026.19
2022-11-02T01:19:54.190Z,101010.56
2022-11-02T01:22:26.523Z,101032.25
2022-11-02T01:24:56.260Z,101035.72
2022-11-02T01:27:26.018Z,101018.66
2022-11-02T01:29:55.744Z,100986.06
2022-11-02T01:32:25.475Z,101007.44
2022-11-02T01:34:55.258Z,100996.13
2022-11-02T01:37:27.684Z,101003.22
2022-11-02T01:39:57.461Z,101012.69
2022-11-02T01:42:29.225Z,101010.13
2022-11-02T01:44:59.537Z,101010.22
2022-11-02T01:47:32.567Z,101011.06
2022-11-02T01:50:07.532Z,100997.09
2022-11-02T01:52:42.158Z,101007.59
2022-11-02T01:55:16.639Z,100995.47
2022-11-02T01:57:51.148Z,100991.31
2022-11-02T02:00:21.904Z,100962.97
2022-11-02T02:03:00.289Z,100989.81
2022-11-02T02:05:32.522Z,100989.09
2022-11-02T02:08:08.186Z,101007.22
2022-11-02T02:10:38.524Z,100996.88
2022-11-02T02:13:10.366Z,101004.53
2022-11-02T02:15:48.408Z,100997.78
2022-11-02T02:18:25.551Z,100989.44
2022-11-02T02:21:14.994Z,100977.28
2022-11-02T02:24:16.089Z,100994.28
2022-11-02T02:27:15.125Z,100977.78
2022-11-02T02:29:55.676Z,100992.47
2022-11-02T02:32:33.178Z,100987.44
2022-11-02T02:35:14.171Z,100982.16
2022-11-02T02:37:52.504Z,100987.44
2022-11-02T02:40:28.196Z,100973.88
2022-11-02T02:43:02.277Z,100968.59
2022-11-02T02:45:40.214Z,100965.16
2022-11-02T02:48:17.116Z,100954.91
2022-11-02T02:50:51.236Z,100967.72
2022-11-02T02:53:27.132Z,100976.41
2022-11-02T02:55:57.796Z,100970.38
2022-11-02T02:58:31.333Z,100966.88
2022-11-02T03:01:04.550Z,100958.25
2022-11-02T03:03:36.935Z,100954.66
2022-11-02T03:06:16.513Z,100960.69
2022-11-02T03:08:58.493Z,100966.66
2022-11-02T03:11:28.677Z,100950.34
2022-11-02T03:14:20.080Z,100895.31
2022-11-02T03:17:08.648Z,100964.81
2022-11-02T03:19:47.968Z,100971.63
2022-11-02T03:22:25.911Z,100951.88
2022-11-02T03:25:02.348Z,100951.03
2022-11-02T03:27:40.749Z,100942.41
2022-11-02T03:30:15.271Z,100957.91
2022-11-02T03:32:56.410Z,100943.97
2022-11-02T03:35:34.854Z,100953.31
2022-11-02T03:38:09.880Z,100942.91
2022-11-02T03:40:45.201Z,100935.16
2022-11-02T03:43:18.580Z,100926.41
2022-11-02T03:45:52.366Z,100940.16
2022-11-02T03:48:28.359Z,100932.56
2022-11-02T03:51:01.145Z,100950.41
2022-11-02T03:53:37.410Z,100942.06
2022-11-02T03:56:12.440Z,100950.63
2022-11-02T03:58:42.388Z,100963.53
2022-11-02T04:01:13.451Z,100964.56
2022-11-02T04:03:48.829Z,100971.47
2022-11-02T04:06:20.438Z,100972.34
2022-11-02T04:08:52.060Z,100973.09
2022-11-02T04:11:36.209Z,100973.00
2022-11-02T04:14:29.314Z,100979.13
2022-11-02T04:17:13.010Z,100960.88
2022-11-02T04:19:50.296Z,100995.44
2022-11-02T04:22:33.700Z,100987.75
2022-11-02T04:25:19.090Z,100948.97
2022-11-02T04:28:21.242Z,100975.72
2022-11-02T04:30:56.369Z,100977.59
2022-11-02T04:33:37.327Z,100995.59
2022-11-02T04:36:19.217Z,101005.91
2022-11-02T04:38:52.242Z,100998.97
2022-11-02T04:41:39.349Z,101002.22
2022-11-02T04:44:14.325Z,101000.56
2022-11-02T04:46:47.374Z,100992.69
2022-11-02T04:49:18.776Z,100967.72
2022-11-02T04:51:51.319Z,100991.91
2022-11-02T04:54:22.594Z,100998.75
2022-11-02T04:56:58.308Z,100992.84
2022-11-02T04:59:29.610Z,100985.03
2022-11-02T05:02:00.834Z,100985.16
2022-11-02T05:04:31.396Z,101005.72
2022-11-02T05:07:06.430Z,100987.75
2022-11-02T05:09:38.401Z,100956.13
2022-11-02T05:12:08.834Z,101003.81
2022-11-02T05:14:39.033Z,101009.66
2022-11-02T05:17:09.618Z,101007.03
2022-11-02T05:19:40.928Z,101002.84
2022-11-02T05:22:13.309Z,100976.09
2022-11-02T05:24:43.260Z,101001.00
2022-11-02T05:27:14.090Z,100984.69
2022-11-02T05:29:45.698Z,100997.50
2022-11-02T05:32:15.606Z,100992.59
2022-11-02T05:34:46.324Z,101006.53
2022-11-02T05:37:19.947Z,101002.19
2022-11-02T05:39:50.710Z,100982.81
2022-11-02T05:42:20.970Z,100997.78
2022-11-02T05:44:50.755Z,100995.94
2022-11-02T05:47:20.738Z,100952.00
2022-11-02T05:49:50.558Z,101018.47
2022-11-02T05:52:22.994Z,101012.50
2022-11-02T05:54:52.958Z,101006.31
2022-11-02T05:57:26.194Z,100991.75
2022-11-02T05:59:59.178Z,101006.28
2022-11-02T06:02:29.111Z,101016.50
2022-11-02T06:04:59.983Z,101022.63
2022-11-02T06:07:33.438Z,101013.00
2022-11-02T06:10:08.302Z,101019.91
2022-11-02T06:12:38.156Z,101014.59
2022-11-02T06:15:08.930Z,101003.41
2022-11-02T06:17:42.256Z,101029.03
2022-11-02T06:20:15.297Z,101034.22
2022-11-02T06:22:49.087Z,101032.59
2022-11-02T06:25:20.957Z,101034.22
2022-11-02T06:27:55.882Z,101010.19
2022-11-02T06:30:29.300Z,101036.81
2022-11-02T06:33:06.937Z,101040.28
2022-11-02T06:35:39.265Z,100978.03
2022-11-02T06:38:11.628Z,101042.66
2022-11-02T06:40:41.773Z,101035.72
2022-11-02T06:43:17.275Z,101052.72
2022-11-02T06:45:49.143Z,101062.44
2022-11-02T06:48:19.963Z,101068.63
2022-11-02T06:50:51.805Z,101060.38
2022-11-02T06:53:24.281Z,101067.38
2022-11-02T06:55:56.370Z,101056.16
2022-11-02T06:58:26.489Z,101057.78
2022-11-02T07:01:01.008Z,101083.72
2022-11-02T07:03:31.081Z,101062.16
2022-11-02T07:06:00.891Z,101090.63
2022-11-02T07:08:34.338Z,101089.84
2022-11-02T07:11:04.800Z,101089.81
2022-11-02T07:13:36.638Z,101086.47
2022-11-02T07:16:06.541Z,101082.94
2022-11-02T07:18:36.452Z,101111.47
2022-11-02T07:21:11.901Z,101111.69
2022-11-02T07:23:44.454Z,101098.63
2022-11-02T07:26:14.338Z,101118.56
2022-11-02T07:28:45.148Z,101091.03
2022-11-02T07:31:15.089Z,101106.41
2022-11-02T07:33:45.912Z,101127.13
2022-11-02T07:36:16.765Z,101104.59
2022-11-02T07:38:51.203Z,101139.09
2022-11-02T07:41:21.088Z,101134.91
2022-11-02T07:43:50.856Z,101144.56
2022-11-02T07:46:30.518Z,101148.84
2022-11-02T07:49:04.156Z,101156.59
2022-11-02T07:51:33.985Z,101154.00
2022-11-02T07:54:06.393Z,101154.91
2022-11-02T07:56:38.173Z,101161.66
2022-11-02T07:59:08.000Z,101153.06
2022-11-02T08:01:38.968Z,101172.06
2022-11-02T08:04:09.930Z,101173.78
2022-11-02T08:06:40.803Z,101161.69
2022-11-02T08:09:14.344Z,101124.00
2022-11-02T08:11:45.354Z,101171.69
2022-11-02T08:14:15.182Z,101172.59
2022-11-02T08:16:45.268Z,101173.41
2022-11-02T08:19:15.076Z,101175.88
2022-11-02T08:21:46.872Z,101150.81
2022-11-02T08:24:20.325Z,101171.53
2022-11-02T08:26:53.958Z,101174.97
2022-11-02T08:29:25.833Z,101178.47
2022-11-02T08:31:55.626Z,101183.53
2022-11-02T08:34:25.484Z,101193.94
2022-11-02T08:36:56.293Z,101179.06
2022-11-02T08:39:29.702Z,101193.97
2022-11-02T08:42:01.530Z,101193.75
2022-11-02T08:44:31.325Z,101168.09
2022-11-02T08:47:03.116Z,101197.44
2022-11-02T08:49:35.284Z,101168.00
2022-11-02T08:52:05.097Z,101210.19
2022-11-02T08:54:40.819Z,101221.28
2022-11-02T08:57:10.660Z,101178.19
2022-11-02T08:59:40.486Z,101217.88
2022-11-02T09:02:12.724Z,101228.97
2022-11-02T09:04:42.650Z,101217.88
2022-11-02T09:07:18.221Z,101183.47
2022-11-02T09:09:53.831Z,101225.97
2022-11-02T09:12:29.976Z,101234.91
2022-11-02T09:15:00.877Z,101238.09
2022-11-02T09:17:31.934Z,101251.63
2022-11-02T09:20:05.189Z,101233.69
2022-11-02T09:22:35.004Z,101230.25
2022-11-02T09:25:07.970Z,101247.66
2022-11-02T09:27:38.809Z,101255.25
2022-11-02T09:30:10.066Z,101257.94
2022-11-02T09:32:43.181Z,101258.78
2022-11-02T09:35:14.696Z,101246.69
2022-11-02T09:37:50.114Z,101273.09
2022-11-02T09:40:25.234Z,101275.88
2022-11-02T09:43:07.494Z,101273.41
2022-11-02T09:45:39.993Z,101278.44
2022-11-02T09:48:20.843Z,101282.84
2022-11-02T09:51:02.104Z,101275.13
2022-11-02T09:53:40.516Z,101238.00
2022-11-02T09:56:15.522Z,101292.31
2022-11-02T09:58:51.308Z,101268.28
2022-11-02T10:01:43.156Z,101282.19
2022-11-02T10:04:34.621Z,101289.16
2022-11-02T10:07:13.447Z,101269.94
2022-11-02T10:09:52.693Z,101302.75
2022-11-02T10:12:29.635Z,101296.16
2022-11-02T10:15:05.059Z,101308.41
2022-11-02T10:17:42.037Z,101309.19
2022-11-02T10:20:27.675Z,101294.50
2022-11-02T10:23:07.174Z,101311.75
2022-11-02T10:25:43.078Z,101320.22
2022-11-02T10:28:21.257Z,101322.03
2022-11-02T10:30:52.386Z,101297.09
2022-11-02T10:33:28.032Z,101330.03
2022-11-02T10:36:18.200Z,101325.66
2022-11-02T10:39:04.174Z,101336.13
2022-11-02T10:42:12.140Z,101330.69
2022-11-02T10:45:06.277Z,101301.38
2022-11-02T10:47:44.557Z,101339.78
2022-11-02T10:50:35.491Z,101339.03
2022-11-02T10:53:35.353Z,101353.06
2022-11-02T10:56:04.457Z,101334.28
2022-11-02T10:58:36.496Z,101357.53
2022-11-02T11:01:12.612Z,101368.84
2022-11-02T11:04:01.028Z,101351.34
2022-11-02T11:06:37.226Z,101352.16
2022-11-02T11:09:10.105Z,101355.88
2022-11-02T11:11:42.037Z,101360.16
2022-11-02T11:20:37.347Z,101328.19
2022-11-02T11:23:24.354Z,101357.38
2022-11-02T11:25:59.501Z,101382.34
2022-11-02T11:28:32.218Z,101381.63
2022-11-02T11:31:09.705Z,101375.72
2022-11-02T11:33:51.247Z,101389.81
2022-11-02T11:36:31.100Z,101391.75
2022-11-02T11:39:03.768Z,101389.03
2022-11-02T11:41:35.782Z,101392.34
2022-11-02T11:44:06.158Z,101374.91
2022-11-02T11:46:47.321Z,101374.13
2022-11-02T11:52:30.026Z,101415.41
2022-11-02T11:55:03.426Z,101403.53
2022-11-02T12:00:31.276Z,101407.56
2022-11-02T12:03:10.477Z,101409.34
2022-11-02T12:05:53.736Z,101366.97
2022-11-02T12:08:44.279Z,101406.78
2022-11-02T12:11:29.234Z,101409.56
2022-11-02T12:14:18.656Z,101411.41
2022-11-02T12:17:08.260Z,101395.88
2022-11-02T12:19:54.431Z,101400.41
2022-11-02T12:22:38.628Z,101411.63
2022-11-02T12:25:23.622Z,101427.78
2022-11-02T12:28:04.222Z,101430.13
2022-11-02T12:30:45.611Z,101429.28
2022-11-02T12:33:29.425Z,101428.22
2022-11-02T12:36:12.582Z,101437.69
2022-11-02T12:39:08.953Z,101419.63
2022-11-02T12:41:49.038Z,101401.41
2022-11-02T12:44:38.026Z,101422.13
2022-11-02T12:47:24.654Z,101425.59
2022-11-02T12:50:05.028Z,101422.22
2022-11-02T12:52:46.558Z,101435.09
2022-11-02T12:55:26.804Z,101437.94
2022-11-02T12:58:02.734Z,101409.38
2022-11-02T13:00:36.744Z,101412.88
2022-11-02T13:03:15.934Z,101401.88
2022-11-02T13:05:54.244Z,101429.63
2022-11-02T13:08:32.851Z,101438.25
2022-11-02T13:11:11.609Z,101421.75
2022-11-02T13:13:46.730Z,101427.06
2022-11-02T13:16:19.679Z,101425.53
2022-11-02T13:18:53.362Z,101414.13
2022-11-02T13:21:38.465Z,101392.53
2022-11-02T13:24:18.638Z,101427.72
2022-11-02T13:26:57.565Z,101401.00
2022-11-02T13:29:45.147Z,101414.72
2022-11-02T13:32:28.454Z,101434.59
2022-11-02T13:35:08.413Z,101433.81
2022-11-02T13:37:44.485Z,101349.19
2022-11-02T13:40:20.347Z,101437.44
2022-11-02T13:43:24.673Z,101395.19
2022-11-02T13:46:30.610Z,101431.16
2022-11-02T13:49:05.820Z,101442.13
2022-11-02T13:51:41.055Z,101431.75
2022-11-02T13:54:17.863Z,101436.16
2022-11-02T13:56:50.404Z,101432.69
2022-11-02T13:59:28.875Z,101431.81
2022-11-02T14:02:02.824Z,101432.59
2022-11-02T14:04:41.427Z,101433.47
2022-11-02T14:07:22.312Z,101442.09
2022-11-02T14:09:53.821Z,101453.94
2022-11-02T14:12:45.879Z,101447.13
2022-11-02T14:15:51.424Z,101452.31
2022-11-02T14:18:34.964Z,101441.03
2022-11-02T14:21:36.678Z,101463.44
2022-11-02T14:24:43.969Z,101473.47
2022-11-02T14:27:32.017Z,101470.00
2022-11-02T14:30:03.865Z,101475.72
2022-11-02T14:32:45.179Z,101461.13
2022-11-02T14:35:35.186Z,101461.09
2022-11-02T14:38:21.902Z,101462.97
2022-11-02T14:41:00.586Z,101455.41
2022-11-02T14:43:57.287Z,101425.81
2022-11-02T14:46:53.367Z,101452.38
2022-11-02T14:49:28.370Z,101437.63
2022-11-02T14:52:05.280Z,101451.69
2022-11-02T14:54:42.427Z,101430.97
2022-11-02T14:57:24.934Z,101448.19
2022-11-02T14:59:59.437Z,101444.78
2022-11-02T15:02:37.398Z,101442.09
2022-11-02T15:05:24.278Z,101433.31
2022-11-02T15:08:02.384Z,101432.59
2022-11-02T15:10:48.242Z,101448.00
2022-11-02T15:13:37.338Z,101442.84
2022-11-02T15:16:34.574Z,101444.38
2022-11-02T15:19:35.214Z,101435.38
2022-11-02T15:22:38.657Z,101380.84
2022-11-02T15:25:15.572Z,101439.56
2022-11-02T15:27:47.630Z,101436.13
2022-11-02T15:30:27.780Z,101431.72
2022-11-02T15:33:03.000Z,101449.56
2022-11-02T15:35:38.518Z,101442.72
2022-11-02T15:38:17.578Z,101440.06
2022-11-02T15:41:05.418Z,101432.06
2022-11-02T15:44:11.321Z,101423.19
2022-11-02T15:46:54.073Z,101454.13
2022-11-02T15:49:40.530Z,101419.19
2022-11-02T15:52:23.053Z,101447.22
2022-11-02T15:55:06.371Z,101453.19
2022-11-02T15:57:51.831Z,101454.91
2022-11-02T16:00:30.345Z,101449.69
2022-11-02T16:03:05.250Z,101463.41
2022-11-02T16:05:44.528Z,101441.03
2022-11-02T16:08:25.909Z,101447.91
2022-11-02T16:11:06.790Z,101430.75
2022-11-02T16:13:55.645Z,101449.69
2022-11-02T16:16:35.660Z,101434.97
2022-11-02T16:19:05.938Z,101453.84
2022-11-02T16:21:36.869Z,101421.09
2022-11-02T16:24:06.904Z,101432.34
2022-11-02T16:26:38.838Z,101437.63
2022-11-02T16:29:13.428Z,101453.19
2022-11-02T16:31:46.373Z,101446.97
2022-11-02T16:34:23.257Z,101450.31
2022-11-02T16:36:53.405Z,101447.66
2022-11-02T16:39:30.429Z,101436.44
2022-11-02T16:42:03.119Z,101450.25
2022-11-02T16:44:36.974Z,101456.25
2022-11-02T16:47:20.685Z,101464.56
2022-11-02T16:50:02.280Z,101446.31
2022-11-02T16:52:36.069Z,101452.16
2022-11-02T16:55:37.685Z,101453.75
2022-11-02T16:58:10.628Z,101464.91
2022-11-02T17:00:54.439Z,101447.50
2022-11-02T17:03:28.245Z,101457.81
2022-11-02T17:06:00.754Z,101474.13
2022-11-02T17:08:34.217Z,101476.69
2022-11-02T17:11:08.505Z,101450.69
2022-11-02T17:13:41.289Z,101454.16
2022-11-02T17:16:15.186Z,101463.63
2022-11-02T17:18:45.175Z,101449.59
2022-11-02T17:21:30.478Z,101448.84
2022-11-02T17:24:01.735Z,101404.22
2022-11-02T17:26:40.169Z,101428.25
2022-11-02T17:29:32.879Z,101452.44
2022-11-02T17:32:07.331Z,101465.09
2022-11-02T17:34:38.213Z,101429.50
2022-11-02T17:37:09.278Z,101461.41
2022-11-02T17:39:39.270Z,101444.94
2022-11-02T17:42:24.357Z,101461.34
2022-11-02T17:44:54.159Z,101449.88
2022-11-02T17:47:26.738Z,101465.69
2022-11-02T17:49:57.648Z,101451.84
2022-11-02T17:52:27.900Z,101449.13
2022-11-02T17:55:00.784Z,101472.56
2022-11-02T17:57:31.590Z,101459.50
2022-11-02T18:00:01.638Z,101460.34
2022-11-02T18:02:44.317Z,101465.47
2022-11-02T18:05:26.113Z,101427.31
2022-11-02T18:07:59.688Z,101462.56
2022-11-02T18:10:33.173Z,101449.47
2022-11-02T18:13:03.830Z,101466.81
2022-11-02T18:15:36.157Z,101446.13
2022-11-02T18:18:09.800Z,101456.31
2022-11-02T18:20:42.290Z,101467.28
2022-11-02T18:23:17.506Z,101459.25
2022-11-02T18:25:48.483Z,101442.00
2022-11-02T18:28:18.430Z,101460.81
2022-11-02T18:30:48.488Z,101437.41
2022-11-02T18:33:22.098Z,101452.78
2022-11-02T18:35:52.052Z,101424.00
2022-11-02T18:38:22.976Z,101455.09
2022-11-02T18:40:53.811Z,101450.19
2022-11-02T18:43:23.842Z,101438.13
2022-11-02T18:45:54.862Z,101449.28
2022-11-02T18:48:27.301Z,101450.69
2022-11-02T18:50:57.269Z,101419.63
2022-11-02T18:53:27.072Z,101422.44
2022-11-02T18:55:58.046Z,101400.88
2022-11-02T18:58:28.965Z,101438.31
2022-11-02T19:01:08.475Z,101421.03
2022-11-02T19:03:42.063Z,101440.06
2022-11-02T19:06:24.469Z,101433.09
2022-11-02T19:09:07.801Z,101375.09
2022-11-02T19:11:39.326Z,101427.91
2022-11-02T19:14:10.356Z,101407.97
2022-11-02T19:16:41.736Z,101427.00
2022-11-02T19:19:15.358Z,101426.22
2022-11-02T19:21:48.679Z,101427.91
2022-11-02T19:24:21.016Z,101416.66
2022-11-02T19:26:51.270Z,101424.28
2022-11-02T19:29:23.018Z,101393.28
2022-11-02T19:31:53.960Z,101395.25
2022-11-02T19:34:26.650Z,101392.75
2022-11-02T19:36:57.624Z,101403.84
2022-11-02T19:39:29.682Z,101403.78
2022-11-02T19:42:03.311Z,101397.75
2022-11-02T19:44:38.159Z,101398.56
2022-11-02T19:47:13.311Z,101396.56
2022-11-02T19:49:46.928Z,101395.22
2022-11-02T19:52:16.906Z,101342.34
2022-11-02T19:54:47.804Z,101397.16
2022-11-02T19:57:18.872Z,101387.16
2022-11-02T19:59:48.737Z,101388.50
2022-11-02T20:02:18.769Z,101375.09
2022-11-02T20:04:51.397Z,101386.31
2022-11-02T20:07:22.370Z,101379.03
2022-11-02T20:09:53.475Z,101352.09
2022-11-02T20:12:26.373Z,101375.81
2022-11-02T20:14:56.453Z,101334.25
2022-11-02T20:17:38.089Z,101357.13
2022-11-02T20:20:19.705Z,101380.50
2022-11-02T20:22:49.665Z,101377.81
2022-11-02T20:25:20.929Z,101374.25
2022-11-02T20:27:51.926Z,101370.78
2022-11-02T20:30:22.438Z,101336.06
2022-11-02T20:32:53.269Z,101364.84
2022-11-02T20:35:26.876Z,101340.34
2022-11-02T20:37:56.911Z,101349.75
2022-11-02T20:40:28.610Z,101363.66
2022-11-02T20:42:58.577Z,101354.97
2022-11-02T20:45:29.531Z,101369.78
2022-11-02T20:48:03.759Z,101373.13
2022-11-02T20:50:36.685Z,101335.31
2022-11-02T20:53:07.849Z,101355.69
2022-11-02T20:55:38.175Z,101344.72
2022-11-02T20:58:08.261Z,101367.06
2022-11-02T21:00:38.135Z,101365.59
2022-11-02T21:03:09.987Z,101342.13
2022-11-02T21:05:43.529Z,101316.31
2022-11-02T21:08:14.321Z,101325.19
2022-11-02T21:10:44.290Z,101347.78
2022-11-02T21:13:27.289Z,101337.34
2022-11-02T21:15:57.201Z,101351.09
2022-11-02T21:18:27.212Z,101344.25
2022-11-02T21:21:06.295Z,101326.88
2022-11-02T21:23:36.443Z,101347.94
2022-11-02T21:26:09.271Z,101294.31
2022-11-02T21:28:42.168Z,101320.53
2022-11-02T21:31:15.242Z,101335.84
2022-11-02T21:33:45.792Z,101320.75
2022-11-02T21:36:20.451Z,101322.56
2022-11-02T21:38:51.232Z,101321.28
2022-11-02T21:41:25.876Z,101300.81
2022-11-02T21:43:56.046Z,101265.31
2022-11-02T21:46:27.011Z,101337.34
2022-11-02T21:48:58.019Z,101316.47
2022-11-02T21:51:30.578Z,101279.66
2022-11-02T21:54:00.476Z,101276.00
2022-11-02T21:56:32.023Z,101318.28
2022-11-02T21:59:02.122Z,101309.09
2022-11-02T22:01:50.276Z,101302.50
2022-11-02T22:04:25.483Z,101293.22
2022-11-02T22:06:58.806Z,101309.25
2022-11-02T22:09:30.353Z,101317.59
2022-11-02T22:12:12.839Z,101318.34
2022-11-02T22:14:44.056Z,101308.06
2022-11-02T22:17:28.666Z,101293.78
2022-11-02T22:20:06.221Z,101272.69
2022-11-02T22:22:39.746Z,101314.34
2022-11-02T22:25:10.251Z,101308.50
2022-11-02T22:27:41.168Z,101292.06
2022-11-02T22:30:12.055Z,101286.88
2022-11-02T22:32:41.909Z,101295.47
2022-11-02T22:35:12.494Z,101283.22
2022-11-02T22:37:57.447Z,101257.03
2022-11-02T22:40:27.268Z,101219.13
2022-11-02T22:42:58.112Z,101254.81
2022-11-02T22:45:27.994Z,101262.91
2022-11-02T22:47:57.835Z,101231.41
2022-11-02T22:50:27.969Z,101255.88
2022-11-02T22:53:00.651Z,101245.97
2022-11-02T22:55:31.627Z,101243.47
2022-11-02T22:58:01.473Z,101215.78
2022-11-02T23:00:31.345Z,101217.41
2022-11-02T23:03:01.309Z,101234.91
2022-11-02T23:05:33.399Z,101240.63
2022-11-02T23:08:07.417Z,101244.22
2022-11-02T23:10:53.566Z,101246.84
2022-11-02T23:13:24.862Z,101239.31
2022-11-02T23:16:14.752Z,101228.94
2022-11-02T23:18:58.035Z,101228.28
2022-11-02T23:21:27.862Z,101235.94
2022-11-02T23:24:12.728Z,101232.66
2022-11-02T23:26:46.460Z,101229.09
2022-11-02T23:29:29.057Z,101189.09
2022-11-02T23:32:11.295Z,101230.84
2022-11-02T23:35:01.048Z,101234.97
2022-11-02T23:37:28.278Z,101205.50
2022-11-02T23:40:00.666Z,101212.72
2022-11-02T23:42:30.584Z,101196.09
2022-11-02T23:45:00.518Z,101145.66
2022-11-02T23:47:43.731Z,101192.63
2022-11-02T23:50:13.911Z,101209.91
2022-11-02T23:52:56.198Z,101154.38
2022-11-02T23:55:41.030Z,101196.78
2022-11-02T23:58:10.950Z,101175.31
